Главная страница
METAR-TAF:

METAR-TAF

Аэропорты :

Хорремабад, Иран

широта: 33-26-11N, долгота: 048-17-09E, высота над уровнем моря: 1155 м

Текущие метеонаблюдения

Эта сводка был подготовлена 58 минут назад, в 19:00 UTC
Ветер 4 Узел от юго-восточный
Температура 10°C
Влажность 82%
Давление 1016 hPa
Видимость 10 км и более
Нет облачности ниже 1500 м, и нет кучево-дождевой облачности

METAR: OICK 241900Z 14004KT CAVOK 10/07 Q1016

Время: 00:28 (19:58 UTC)


TAF: отсутствует

Метеонаблюдения и прогнозы для более 4000 аэропортов (сводки METAR и TAF).

Имеющиеся станции представлены на карте желтыми и красными точками.

Чтобы увидеть название станции, наведите на нее мышь.

Затем щелкните, чтобы увидеть метеонаблюдения и метеопрогнозы.

Управление картой: чтобы увеличить масштаб, щелкните зеленые кнопки с черным крестиком; чтобы уменьшить масштаб, щелкните зеленую кнопку с тире; для просмотра соседних карт щелкайте зеленые стрелки.


METAR-TAF: